Time;durP1;ratioP1;P1;durP2;ratioP2;P2;SDS_P1;SDS_P2;PMS_P1;PMS_P2;Temp;Humidity;BMP_temperature;BMP_pressure;BME280_temperature;BME280_humidity;BME280_pressure;Samples;Min_cycle;Max_cycle;Signal;HPM_P1;HPM_P2
2023/11/23 02:25:12;;;;;;;10.40;6.47;;;1.90;99.90;;;;;;5060916;28;20414;-57
2023/11/23 02:27:38;;;;;;;10.03;6.13;;;1.90;99.90;;;;;;5064093;28;20432;-57
2023/11/23 02:30:07;;;;;;;11.97;6.63;;;1.80;99.90;;;;;;5063511;28;20448;-57
2023/11/23 02:32:32;;;;;;;11.27;6.40;;;1.80;99.90;;;;;;5065236;28;20202;-57
2023/11/23 02:34:58;;;;;;;10.53;6.87;;;1.80;99.90;;;;;;5063908;28;20431;-58
2023/11/23 02:37:24;;;;;;;10.50;6.60;;;1.90;99.90;;;;;;5064541;28;20181;-57
2023/11/23 02:39:50;;;;;;;13.50;7.30;;;1.80;99.90;;;;;;5059358;28;20221;-58
2023/11/23 02:42:15;;;;;;;13.20;6.97;;;1.80;99.90;;;;;;5061629;28;20817;-58
2023/11/23 02:44:41;;;;;;;13.97;7.50;;;1.80;99.90;;;;;;5064955;28;20444;-58
2023/11/23 02:47:07;;;;;;;8.10;6.13;;;1.80;99.90;;;;;;5067256;28;20236;-58
2023/11/23 02:49:33;;;;;;;10.90;6.67;;;1.80;99.90;;;;;;5066173;28;20267;-59
2023/11/23 02:51:58;;;;;;;10.20;6.70;;;1.80;99.90;;;;;;5064856;28;20182;-59
2023/11/23 02:54:24;;;;;;;12.10;7.73;;;1.80;99.90;;;;;;5065603;28;20524;-58
2023/11/23 02:56:50;;;;;;;11.83;6.73;;;1.70;99.90;;;;;;5061250;28;20189;-59
2023/11/23 02:59:16;;;;;;;11.40;6.83;;;1.70;99.90;;;;;;5061893;28;20198;-57
2023/11/23 03:01:41;;;;;;;12.30;7.20;;;1.70;99.90;;;;;;5059579;28;20186;-58
2023/11/23 03:04:07;;;;;;;11.67;7.37;;;1.80;99.90;;;;;;5064126;28;20418;-58
2023/11/23 03:06:33;;;;;;;13.93;6.83;;;1.80;99.90;;;;;;5060460;28;20192;-57
2023/11/23 03:08:59;;;;;;;12.43;6.70;;;1.80;99.90;;;;;;5063513;28;20424;-58
2023/11/23 03:11:26;;;;;;;10.43;6.77;;;1.80;99.90;;;;;;5059982;28;20208;-58
2023/11/23 03:13:53;;;;;;;10.60;6.83;;;1.80;99.90;;;;;;5057588;28;20545;-60
2023/11/23 03:16:19;;;;;;;12.10;8.03;;;1.80;99.90;;;;;;5060231;28;20532;-58
2023/11/23 03:18:45;;;;;;;12.77;7.70;;;1.70;99.90;;;;;;5066344;28;20503;-58
2023/11/23 03:21:11;;;;;;;11.40;7.77;;;1.70;99.90;;;;;;5062665;28;20869;-58
2023/11/23 03:23:36;;;;;;;10.27;6.80;;;1.70;99.90;;;;;;5064256;28;20446;-58
2023/11/23 03:26:03;;;;;;;11.87;7.37;;;1.70;99.90;;;;;;5056136;28;20583;-58
2023/11/23 03:28:29;;;;;;;13.73;7.60;;;1.70;99.90;;;;;;5064154;28;20220;-56
2023/11/23 03:30:55;;;;;;;12.33;6.53;;;1.70;99.90;;;;;;5065144;28;20491;-58
2023/11/23 03:33:20;;;;;;;12.73;7.20;;;1.70;99.90;;;;;;5065283;28;20521;-58
2023/11/23 03:35:46;;;;;;;12.57;7.33;;;1.70;99.90;;;;;;5056178;28;20629;-59
2023/11/23 03:38:12;;;;;;;10.63;6.80;;;1.70;99.90;;;;;;5064558;28;20171;-58
2023/11/23 03:40:38;;;;;;;10.50;6.53;;;1.60;99.90;;;;;;5058498;28;20508;-58
2023/11/23 03:43:04;;;;;;;9.80;6.50;;;1.60;99.90;;;;;;5057429;28;20189;-57
2023/11/23 03:45:30;;;;;;;9.23;6.20;;;1.60;99.90;;;;;;5064252;28;20186;-56
2023/11/23 03:47:56;;;;;;;10.17;6.80;;;1.60;99.90;;;;;;5067186;28;20422;-57
2023/11/23 03:50:24;;;;;;;10.77;6.40;;;1.50;99.90;;;;;;5064181;28;20242;-57
2023/11/23 03:52:53;;;;;;;9.07;6.13;;;1.50;99.90;;;;;;5056684;28;21959;-57
2023/11/23 03:55:19;;;;;;;10.00;6.73;;;1.40;99.90;;;;;;5061236;28;20525;-57
2023/11/23 03:57:48;;;;;;;10.37;6.07;;;1.40;99.90;;;;;;5059868;28;20914;-58
2023/11/23 04:00:15;;;;;;;9.00;5.73;;;1.40;99.90;;;;;;5064104;28;20459;-58
2023/11/23 04:02:46;;;;;;;10.53;6.03;;;1.30;99.90;;;;;;5062317;28;20425;-57
2023/11/23 04:05:17;;;;;;;9.93;5.43;;;1.30;99.90;;;;;;5066528;28;20974;-57
2023/11/23 04:07:43;;;;;;;9.57;5.60;;;1.20;99.90;;;;;;5064655;28;20801;-58
2023/11/23 04:10:09;;;;;;;10.87;6.43;;;1.20;99.90;;;;;;5061993;28;20432;-58
2023/11/23 04:12:35;;;;;;;8.90;6.20;;;1.10;99.90;;;;;;5061702;28;20340;-58
2023/11/23 04:15:01;;;;;;;9.77;6.67;;;1.10;99.90;;;;;;5065166;28;20178;-59
2023/11/23 04:17:26;;;;;;;9.60;6.50;;;1.10;99.90;;;;;;5059036;28;20217;-59
2023/11/23 04:19:54;;;;;;;9.90;6.40;;;1.10;99.90;;;;;;5061736;28;20202;-60
2023/11/23 04:22:23;;;;;;;15.20;7.87;;;1.10;99.90;;;;;;5064424;28;20181;-59
2023/11/23 04:24:48;;;;;;;10.80;7.47;;;1.00;99.90;;;;;;5066952;28;20903;-59
2023/11/23 04:27:15;;;;;;;18.87;10.80;;;1.00;99.90;;;;;;5064640;28;20441;-59
2023/11/23 04:29:41;;;;;;;12.63;7.23;;;1.00;99.90;;;;;;5069210;28;20244;-58
2023/11/23 04:32:10;;;;;;;10.80;7.13;;;0.90;99.90;;;;;;5065105;28;20506;-57
2023/11/23 04:34:36;;;;;;;11.07;6.43;;;0.90;99.90;;;;;;5068927;28;20927;-57
2023/11/23 04:37:02;;;;;;;11.00;7.00;;;0.90;99.90;;;;;;5064762;28;20463;-57
2023/11/23 04:39:28;;;;;;;12.63;7.50;;;0.90;99.90;;;;;;5068935;28;20435;-59
2023/11/23 04:41:55;;;;;;;11.90;6.93;;;0.90;99.90;;;;;;5068437;28;20470;-58
2023/11/23 04:44:21;;;;;;;14.57;8.50;;;0.90;99.90;;;;;;5068494;28;20170;-58
2023/11/23 04:46:47;;;;;;;13.93;7.27;;;0.90;99.90;;;;;;5067995;28;20430;-58
2023/11/23 04:49:12;;;;;;;20.30;10.73;;;0.90;99.90;;;;;;5061710;28;20854;-58
2023/11/23 04:51:38;;;;;;;13.13;7.73;;;0.90;99.90;;;;;;5063795;28;20464;-58
2023/11/23 04:54:04;;;;;;;14.83;8.53;;;0.80;99.90;;;;;;5068138;28;20569;-58
2023/11/23 04:56:30;;;;;;;13.33;7.80;;;0.80;99.90;;;;;;5064891;28;20768;-57
2023/11/23 04:58:56;;;;;;;13.47;7.63;;;0.80;99.90;;;;;;5066095;28;20422;-58
2023/11/23 05:01:22;;;;;;;17.87;8.00;;;0.80;99.90;;;;;;5062309;28;20450;-58
2023/11/23 05:03:48;;;;;;;13.73;8.30;;;0.80;99.90;;;;;;5064038;28;21015;-59
2023/11/23 05:06:15;;;;;;;14.50;7.43;;;0.80;99.90;;;;;;5061314;28;20260;-59
2023/11/23 05:08:45;;;;;;;10.70;7.23;;;0.80;99.90;;;;;;5055791;28;20477;-58
2023/11/23 05:11:12;;;;;;;11.53;7.00;;;0.80;99.90;;;;;;5059304;28;20853;-59
2023/11/23 05:13:37;;;;;;;14.80;8.17;;;0.80;99.90;;;;;;5056043;28;20513;-58
2023/11/23 05:16:05;;;;;;;13.23;6.93;;;0.80;99.90;;;;;;5062943;28;20474;-57
2023/11/23 05:18:31;;;;;;;17.90;7.83;;;0.80;99.90;;;;;;5063226;28;20569;-58
2023/11/23 05:20:56;;;;;;;13.37;7.07;;;0.70;99.90;;;;;;5061232;28;20516;-59
2023/11/23 05:23:22;;;;;;;12.00;6.97;;;0.70;99.90;;;;;;5058515;28;20190;-58
2023/11/23 05:25:49;;;;;;;10.23;6.23;;;0.70;99.90;;;;;;5062540;28;21944;-59
2023/11/23 05:28:15;;;;;;;9.80;6.30;;;0.70;99.90;;;;;;5061840;28;20730;-60
2023/11/23 05:30:41;;;;;;;9.30;6.63;;;0.70;99.90;;;;;;5059545;28;20455;-59
2023/11/23 05:33:06;;;;;;;8.23;5.40;;;0.70;99.90;;;;;;5065859;28;20203;-57
2023/11/23 05:35:32;;;;;;;9.27;6.53;;;0.70;99.90;;;;;;5062239;28;20431;-59
2023/11/23 05:37:58;;;;;;;9.13;5.50;;;0.70;99.90;;;;;;5056761;28;20587;-58
2023/11/23 05:40:23;;;;;;;8.93;6.40;;;0.70;99.90;;;;;;5053930;28;20295;-56
2023/11/23 05:42:50;;;;;;;10.13;6.50;;;0.60;99.90;;;;;;5059501;28;20255;-59
2023/11/23 05:45:16;;;;;;;10.83;6.23;;;0.60;99.90;;;;;;5057529;28;20201;-59
2023/11/23 05:47:41;;;;;;;9.10;5.63;;;0.60;99.90;;;;;;5061855;28;20415;-59
2023/11/23 05:50:08;;;;;;;12.97;6.47;;;0.70;99.90;;;;;;5052360;28;20521;-59
2023/11/23 05:52:34;;;;;;;9.57;6.70;;;0.60;99.90;;;;;;5060612;28;20731;-60
2023/11/23 05:55:00;;;;;;;14.97;8.30;;;0.60;99.90;;;;;;5065539;28;20441;-59
2023/11/23 05:57:25;;;;;;;13.60;6.47;;;0.60;99.90;;;;;;5063054;28;20539;-58
2023/11/23 05:59:51;;;;;;;9.60;5.90;;;0.60;99.90;;;;;;5061262;28;20200;-60
2023/11/23 06:02:18;;;;;;;11.53;6.37;;;0.60;99.90;;;;;;5064355;28;20180;-58
2023/11/23 06:04:44;;;;;;;11.30;6.50;;;0.60;99.90;;;;;;5060063;28;20470;-59
2023/11/23 06:07:10;;;;;;;13.20;5.87;;;0.60;99.90;;;;;;5059973;28;20441;-60
2023/11/23 06:09:39;;;;;;;9.13;5.70;;;0.60;99.90;;;;;;5065412;28;20471;-60
2023/11/23 06:12:05;;;;;;;10.27;5.83;;;0.60;99.90;;;;;;5062215;28;20213;-59
2023/11/23 06:14:36;;;;;;;11.50;6.00;;;0.60;99.90;;;;;;5063050;28;20901;-59
2023/11/23 06:17:06;;;;;;;8.60;5.90;;;0.60;99.90;;;;;;5063174;28;20478;-59
2023/11/23 06:19:32;;;;;;;11.87;6.40;;;0.50;99.90;;;;;;5064752;28;20451;-59
2023/11/23 06:21:58;;;;;;;15.80;6.50;;;0.50;99.90;;;;;;5066140;28;20427;-59
2023/11/23 06:24:23;;;;;;;14.50;6.43;;;0.50;99.90;;;;;;5065426;28;20197;-59
2023/11/23 06:26:49;;;;;;;16.43;7.50;;;0.50;99.90;;;;;;5059363;28;20693;-58
2023/11/23 06:29:15;;;;;;;11.87;7.30;;;0.50;99.90;;;;;;5066476;28;20183;-59
2023/11/23 06:31:41;;;;;;;10.50;6.90;;;0.40;99.90;;;;;;5064089;28;20883;-59
2023/11/23 06:34:07;;;;;;;13.43;7.70;;;0.40;99.90;;;;;;5068380;28;20204;-59
2023/11/23 06:36:33;;;;;;;11.63;7.27;;;0.40;99.90;;;;;;5059825;28;20493;-58
2023/11/23 06:38:58;;;;;;;11.60;7.10;;;0.40;99.90;;;;;;5065620;28;20574;-59
2023/11/23 06:41:24;;;;;;;12.33;6.60;;;0.30;99.90;;;;;;5063816;28;20557;-59
2023/11/23 06:43:51;;;;;;;12.23;6.90;;;0.30;99.90;;;;;;5065858;28;20545;-60
2023/11/23 06:46:18;;;;;;;18.70;9.10;;;0.30;99.90;;;;;;5067689;28;20192;-59
2023/11/23 06:48:44;;;;;;;16.63;9.10;;;0.30;99.90;;;;;;5059505;28;20461;-59
2023/11/23 06:51:10;;;;;;;15.97;8.47;;;0.30;99.90;;;;;;5061385;28;20879;-60
2023/11/23 06:53:48;;;;;;;14.37;7.90;;;0.30;99.90;;;;;;5067676;28;20575;-60
2023/11/23 06:56:17;;;;;;;12.13;7.93;;;0.30;99.90;;;;;;5062839;28;20433;-59
2023/11/23 06:58:47;;;;;;;14.80;9.50;;;0.30;99.90;;;;;;5054758;28;20433;-59
2023/11/23 07:01:14;;;;;;;11.07;7.13;;;0.30;99.90;;;;;;5066777;28;20430;-59
2023/11/23 07:03:41;;;;;;;14.90;5.87;;;0.30;99.90;;;;;;5063637;28;20456;-59
2023/11/23 07:06:07;;;;;;;10.70;5.50;;;0.30;99.90;;;;;;5055365;28;20439;-59
2023/11/23 07:08:37;;;;;;;10.60;5.93;;;0.30;99.90;;;;;;5068143;28;20418;-58
2023/11/23 07:11:07;;;;;;;14.90;5.60;;;0.30;99.90;;;;;;5060014;28;20484;-58
2023/11/23 07:13:34;;;;;;;13.50;7.20;;;0.40;99.90;;;;;;5059942;28;20865;-58
2023/11/23 07:16:01;;;;;;;9.30;6.00;;;0.40;99.90;;;;;;5059516;28;21019;-58
2023/11/23 07:18:27;;;;;;;11.87;6.47;;;0.40;99.90;;;;;;5063076;28;20518;-59
2023/11/23 07:20:56;;;;;;;12.50;6.10;;;0.40;99.90;;;;;;5064157;28;20535;-58
2023/11/23 07:23:22;;;;;;;9.90;5.40;;;0.40;99.90;;;;;;5066829;28;20181;-59
2023/11/23 07:25:48;;;;;;;10.80;5.80;;;0.40;99.90;;;;;;5061679;28;20439;-59
2023/11/23 07:28:14;;;;;;;9.87;5.50;;;0.50;99.90;;;;;;5061168;28;20430;-59
2023/11/23 07:30:43;;;;;;;10.20;6.23;;;0.40;99.90;;;;;;5059250;28;20485;-58
2023/11/23 07:33:09;;;;;;;10.30;5.90;;;0.50;99.90;;;;;;5059674;28;20522;-59
2023/11/23 07:35:36;;;;;;;15.77;7.53;;;0.50;99.90;;;;;;5061293;28;20535;-60
2023/11/23 07:38:03;;;;;;;17.83;9.63;;;0.50;99.90;;;;;;5066088;28;20525;-58
2023/11/23 07:40:29;;;;;;;18.27;10.47;;;0.50;99.90;;;;;;5066986;28;20529;-59
2023/11/23 07:42:54;;;;;;;17.53;10.20;;;0.50;99.90;;;;;;5067612;28;20416;-59
2023/11/23 07:45:20;;;;;;;19.77;11.13;;;0.50;99.90;;;;;;5066934;28;20426;-60
2023/11/23 07:47:46;;;;;;;23.57;11.50;;;0.60;99.90;;;;;;5064385;28;20600;-60
2023/11/23 07:50:15;;;;;;;16.53;8.70;;;0.60;99.90;;;;;;5061308;28;20224;-59
2023/11/23 07:52:46;;;;;;;18.10;7.40;;;0.60;99.90;;;;;;5059967;28;20470;-59
2023/11/23 07:55:12;;;;;;;15.73;7.50;;;0.70;99.90;;;;;;5059683;28;20504;-59
2023/11/23 07:57:38;;;;;;;13.37;8.30;;;0.70;99.90;;;;;;5061138;28;20439;-60
2023/11/23 08:00:07;;;;;;;12.37;6.27;;;0.70;99.90;;;;;;5059746;28;20618;-59
2023/11/23 08:02:33;;;;;;;8.47;5.90;;;0.70;99.90;;;;;;5064382;28;20443;-59
2023/11/23 08:04:59;;;;;;;10.30;5.63;;;0.80;99.90;;;;;;5066791;28;20776;-60
2023/11/23 08:07:25;;;;;;;9.13;5.30;;;0.80;99.90;;;;;;5069561;28;20185;-59
2023/11/23 08:09:51;;;;;;;9.03;5.27;;;0.80;99.90;;;;;;5062489;28;20431;-58
2023/11/23 08:12:18;;;;;;;7.80;5.23;;;0.80;99.90;;;;;;5065387;28;20486;-59
2023/11/23 08:14:44;;;;;;;12.80;6.43;;;0.90;99.90;;;;;;5060728;28;20498;-59
2023/11/23 08:17:11;;;;;;;8.23;5.47;;;0.90;99.90;;;;;;5065467;28;20439;-58
2023/11/23 08:19:37;;;;;;;9.60;6.07;;;0.90;99.90;;;;;;5058426;28;20463;-58
2023/11/23 08:22:07;;;;;;;9.30;6.10;;;0.90;99.90;;;;;;5061427;28;20942;-57
2023/11/23 08:24:32;;;;;;;12.37;6.80;;;0.90;99.90;;;;;;5069450;28;20422;-58
2023/11/23 08:26:58;;;;;;;9.00;5.77;;;1.00;99.90;;;;;;5064094;28;20431;-59
2023/11/23 08:29:23;;;;;;;15.93;6.97;;;1.00;99.90;;;;;;5064349;28;20253;-58
2023/11/23 08:31:51;;;;;;;11.13;5.57;;;1.10;99.90;;;;;;5057621;28;20643;-59
2023/11/23 08:34:16;;;;;;;10.23;6.17;;;1.10;99.90;;;;;;5062647;28;20254;-58
2023/11/23 08:36:43;;;;;;;11.77;6.70;;;1.20;99.90;;;;;;5068885;28;20422;-58
2023/11/23 08:39:12;;;;;;;12.40;6.40;;;1.20;99.90;;;;;;5064028;28;20174;-58
2023/11/23 08:41:41;;;;;;;12.23;7.00;;;1.30;99.90;;;;;;5066237;28;20467;-58
2023/11/23 08:44:07;;;;;;;13.63;6.53;;;1.40;99.90;;;;;;5067278;28;20413;-59
2023/11/23 08:46:33;;;;;;;8.33;5.10;;;1.40;99.90;;;;;;5064828;28;20439;-59
2023/11/23 08:49:02;;;;;;;9.50;5.40;;;1.50;99.90;;;;;;5068565;28;20467;-60
2023/11/23 08:51:29;;;;;;;10.00;5.80;;;1.60;99.90;;;;;;5066318;28;20407;-60
2023/11/23 08:53:55;;;;;;;11.40;5.57;;;1.60;99.90;;;;;;5066432;28;21014;-59
2023/11/23 08:56:21;;;;;;;12.13;5.30;;;1.70;99.90;;;;;;5066684;28;20447;-58
2023/11/23 08:58:47;;;;;;;8.10;4.60;;;1.80;99.90;;;;;;5067156;28;20422;-58
2023/11/23 09:01:12;;;;;;;8.00;4.60;;;1.80;99.90;;;;;;5068473;28;20229;-59
2023/11/23 09:03:38;;;;;;;5.20;4.00;;;1.90;99.90;;;;;;5059780;28;20189;-62
2023/11/23 09:06:04;;;;;;;6.03;4.00;;;2.00;99.90;;;;;;5064486;28;20183;-59
2023/11/23 09:08:30;;;;;;;6.60;4.07;;;2.20;99.90;;;;;;5065971;28;20182;-59
2023/11/23 09:10:55;;;;;;;6.07;4.00;;;2.30;99.90;;;;;;5065050;28;20464;-60
2023/11/23 09:13:22;;;;;;;6.27;4.20;;;2.50;99.90;;;;;;5065269;28;20199;-59
2023/11/23 09:15:48;;;;;;;6.30;4.23;;;2.60;99.90;;;;;;5066505;28;20178;-58
2023/11/23 09:18:13;;;;;;;5.60;4.33;;;2.80;99.90;;;;;;5068518;28;20828;-59
2023/11/23 09:20:39;;;;;;;8.60;4.43;;;2.90;99.90;;;;;;5064678;28;20646;-59
2023/11/23 09:23:06;;;;;;;5.50;4.03;;;3.10;99.90;;;;;;5067272;28;20750;-59
2023/11/23 09:25:33;;;;;;;9.00;4.83;;;3.30;99.90;;;;;;5061347;28;20266;-58
2023/11/23 09:28:00;;;;;;;8.00;5.13;;;3.50;99.90;;;;;;5061729;28;20954;-59
2023/11/23 09:30:25;;;;;;;10.60;5.23;;;3.70;99.90;;;;;;5061188;28;20819;-59
2023/11/23 09:32:52;;;;;;;8.73;5.40;;;3.80;99.90;;;;;;5062863;28;20546;-59
2023/11/23 09:35:19;;;;;;;9.70;5.23;;;4.00;99.90;;;;;;5065703;28;20185;-58
2023/11/23 09:37:45;;;;;;;5.30;3.77;;;4.10;99.90;;;;;;5064667;28;20519;-60
2023/11/23 09:40:17;;;;;;;9.07;4.73;;;4.20;99.90;;;;;;5061006;28;20540;-60
2023/11/23 09:42:43;;;;;;;8.60;4.97;;;4.20;99.90;;;;;;5055225;28;20412;-59
2023/11/23 09:45:15;;;;;;;9.10;5.80;;;4.30;99.90;;;;;;5067404;28;20449;-60
2023/11/23 09:47:42;;;;;;;7.40;5.07;;;4.30;99.90;;;;;;5068051;28;21015;-59
2023/11/23 09:50:09;;;;;;;3.33;2.87;;;4.40;99.90;;;;;;5062545;28;20454;-59
2023/11/23 09:52:36;;;;;;;11.13;3.90;;;4.30;98.80;;;;;;5064471;28;20464;-59
2023/11/23 09:55:04;;;;;;;3.37;2.53;;;4.30;96.30;;;;;;5057858;28;20441;-59
2023/11/23 09:57:30;;;;;;;3.10;2.33;;;4.30;90.70;;;;;;5066981;28;20425;-59
2023/11/23 09:59:56;;;;;;;3.50;2.93;;;4.30;89.80;;;;;;5060434;28;20837;-59
2023/11/23 10:02:25;;;;;;;3.30;2.70;;;4.30;88.70;;;;;;5065033;28;20425;-59
2023/11/23 10:04:57;;;;;;;3.83;2.70;;;4.40;86.40;;;;;;5060367;28;20486;-59
2023/11/23 10:07:23;;;;;;;5.30;2.67;;;4.40;88.30;;;;;;5064125;28;20906;-59
2023/11/23 10:09:49;;;;;;;3.67;2.50;;;4.50;88.80;;;;;;5060351;28;21202;-60
2023/11/23 10:12:14;;;;;;;3.63;2.70;;;4.50;89.40;;;;;;5061140;28;20428;-60
2023/11/23 10:14:40;;;;;;;5.00;2.90;;;4.60;90.50;;;;;;5056004;28;20167;-59
2023/11/23 10:17:06;;;;;;;3.30;2.73;;;4.70;89.00;;;;;;5053723;28;20201;-58
2023/11/23 10:19:35;;;;;;;4.30;2.90;;;4.70;84.70;;;;;;5055521;28;20677;-59
2023/11/23 10:22:03;;;;;;;3.90;2.63;;;4.70;86.30;;;;;;5058038;28;20433;-61
2023/11/23 10:24:29;;;;;;;6.47;3.67;;;4.80;86.30;;;;;;5060408;28;20940;-60
2023/11/23 10:26:56;;;;;;;6.80;4.07;;;4.80;80.50;;;;;;5060946;28;20428;-59
2023/11/23 10:29:26;;;;;;;11.50;3.87;;;4.90;85.90;;;;;;5062149;28;21033;-60
2023/11/23 10:31:53;;;;;;;4.70;3.27;;;4.90;90.00;;;;;;5063424;28;20498;-58
2023/11/23 10:34:18;;;;;;;6.80;3.93;;;5.00;86.40;;;;;;5059865;28;20449;-58
2023/11/23 10:36:48;;;;;;;8.10;2.90;;;5.10;88.90;;;;;;5058437;28;20895;-59
2023/11/23 10:39:18;;;;;;;3.43;2.90;;;5.20;89.60;;;;;;5067138;28;20548;-60
2023/11/23 10:41:44;;;;;;;5.27;3.50;;;5.40;90.20;;;;;;5060627;28;20444;-58
2023/11/23 10:44:12;;;;;;;9.47;3.03;;;5.50;89.30;;;;;;5065117;28;20471;-59
2023/11/23 10:46:38;;;;;;;4.10;2.90;;;5.60;81.20;;;;;;5061770;28;20433;-58
2023/11/23 10:49:08;;;;;;;6.30;3.33;;;5.70;82.20;;;;;;5062884;28;20418;-59
2023/11/23 10:51:34;;;;;;;3.70;3.00;;;5.70;82.80;;;;;;5061957;28;20448;-60
2023/11/23 10:54:00;;;;;;;3.63;2.93;;;5.80;84.10;;;;;;5058026;28;20500;-58
2023/11/23 10:56:29;;;;;;;4.00;2.67;;;5.90;80.30;;;;;;5054041;28;20489;-59
2023/11/23 10:59:02;;;;;;;4.70;2.67;;;6.00;73.50;;;;;;5060871;28;20429;-60
2023/11/23 11:01:30;;;;;;;4.43;2.90;;;6.10;72.50;;;;;;5059766;28;20425;-59
2023/11/23 11:03:57;;;;;;;6.70;3.30;;;6.30;74.00;;;;;;5063938;28;20450;-59
2023/11/23 11:06:23;;;;;;;5.03;3.30;;;6.30;68.70;;;;;;5073563;28;20440;-59
2023/11/23 11:08:49;;;;;;;4.93;2.87;;;6.40;67.80;;;;;;5064311;28;20432;-58
2023/11/23 11:11:25;;;;;;;5.20;2.97;;;6.40;67.30;;;;;;5053644;28;20457;-57
2023/11/23 11:14:02;;;;;;;4.70;2.70;;;6.40;67.20;;;;;;5052983;28;20994;-59
2023/11/23 11:16:35;;;;;;;3.63;2.80;;;6.50;67.40;;;;;;5059318;28;20844;-59
2023/11/23 11:19:05;;;;;;;3.57;2.50;;;6.50;67.80;;;;;;5056086;28;21015;-60
2023/11/23 11:21:41;;;;;;;5.10;3.00;;;6.50;67.70;;;;;;5057784;28;20435;-58
2023/11/23 11:24:20;;;;;;;3.20;2.87;;;6.50;69.20;;;;;;5056762;28;20496;-58
2023/11/23 11:26:49;;;;;;;5.00;4.00;;;6.50;66.80;;;;;;5063852;28;20428;-59
2023/11/23 11:29:18;;;;;;;3.50;3.03;;;6.50;67.30;;;;;;5062689;28;20428;-60
2023/11/23 11:31:48;;;;;;;5.40;2.87;;;6.50;66.80;;;;;;5059958;28;20790;-59
2023/11/23 11:34:21;;;;;;;4.20;2.73;;;6.50;69.20;;;;;;5062354;28;20972;-58
2023/11/23 11:36:55;;;;;;;5.60;2.67;;;6.50;69.80;;;;;;5056745;28;20440;-58
2023/11/23 11:39:21;;;;;;;6.13;2.87;;;6.50;67.00;;;;;;5065428;28;20467;-59
2023/11/23 11:41:47;;;;;;;4.30;3.20;;;6.50;69.90;;;;;;5063524;28;20448;-59
2023/11/23 11:44:15;;;;;;;3.90;3.23;;;6.50;71.60;;;;;;5066794;28;20171;-58
2023/11/23 11:46:41;;;;;;;7.23;3.00;;;6.60;71.60;;;;;;5069550;28;20804;-59
2023/11/23 11:49:11;;;;;;;4.17;2.90;;;6.70;71.50;;;;;;5069306;28;21185;-59
2023/11/23 11:51:37;;;;;;;5.20;3.13;;;6.60;70.30;;;;;;5069787;28;20209;-59
2023/11/23 11:54:05;;;;;;;3.50;2.70;;;6.60;72.80;;;;;;5065045;28;20457;-59
2023/11/23 11:56:31;;;;;;;3.47;2.50;;;6.50;74.10;;;;;;5067782;28;20169;-59
2023/11/23 11:58:56;;;;;;;2.80;2.40;;;6.50;74.60;;;;;;5067139;28;20424;-59
2023/11/23 12:01:22;;;;;;;4.80;2.60;;;6.50;71.20;;;;;;5066576;28;20201;-59
2023/11/23 12:03:49;;;;;;;3.87;2.73;;;6.50;69.90;;;;;;5066760;28;20257;-60
2023/11/23 12:06:17;;;;;;;3.17;2.70;;;6.40;69.40;;;;;;5063608;28;20175;-59
2023/11/23 12:08:44;;;;;;;4.60;2.73;;;6.40;68.30;;;;;;5066702;28;20981;-58
2023/11/23 12:11:23;;;;;;;7.00;3.30;;;6.40;69.90;;;;;;5058556;28;20475;-60
2023/11/23 12:13:54;;;;;;;3.93;3.07;;;6.40;71.60;;;;;;5067444;28;20490;-59
2023/11/23 12:16:41;;;;;;;4.80;3.20;;;6.30;69.50;;;;;;5066955;28;21070;-60
2023/11/23 12:19:20;;;;;;;8.03;2.90;;;6.40;70.00;;;;;;5061631;28;20440;-59
2023/11/23 12:21:56;;;;;;;4.03;2.90;;;6.40;69.60;;;;;;5062760;28;20428;-60
2023/11/23 12:24:42;;;;;;;2.70;2.50;;;6.30;68.30;;;;;;5062318;28;20448;-59
2023/11/23 12:27:07;;;;;;;4.37;3.00;;;6.40;68.80;;;;;;5066924;28;20435;-59
2023/11/23 12:29:33;;;;;;;3.97;2.50;;;6.40;68.20;;;;;;5069279;28;20447;-59
2023/11/23 12:32:01;;;;;;;3.50;2.20;;;6.40;67.10;;;;;;5059710;28;20174;-61
2023/11/23 12:34:27;;;;;;;4.50;2.77;;;6.50;66.60;;;;;;5058966;28;20986;-59
2023/11/23 12:36:57;;;;;;;3.07;2.40;;;6.50;66.60;;;;;;5067914;28;20428;-59
2023/11/23 12:39:22;;;;;;;3.60;2.97;;;6.50;67.40;;;;;;5068906;28;20256;-59
2023/11/23 12:41:49;;;;;;;7.53;3.23;;;6.50;66.80;;;;;;5068191;28;20421;-59
2023/11/23 12:44:15;;;;;;;3.23;2.93;;;6.50;67.60;;;;;;5067883;28;20198;-59
2023/11/23 12:46:41;;;;;;;3.07;2.47;;;6.60;67.80;;;;;;5065791;28;20448;-56
2023/11/23 12:49:07;;;;;;;3.80;3.00;;;6.60;69.30;;;;;;5060820;28;20229;-59
2023/11/23 12:51:33;;;;;;;4.17;2.80;;;6.60;68.50;;;;;;5066497;28;20798;-60
2023/11/23 12:53:58;;;;;;;6.30;3.27;;;6.70;68.30;;;;;;5064016;28;20689;-60
2023/11/23 12:56:24;;;;;;;3.80;3.00;;;6.70;68.50;;;;;;5068248;28;20210;-61
2023/11/23 12:58:50;;;;;;;3.40;2.13;;;6.70;68.50;;;;;;5066927;28;20181;-61
2023/11/23 13:01:15;;;;;;;6.50;2.00;;;6.80;67.30;;;;;;5063660;28;20217;-60
2023/11/23 13:03:41;;;;;;;4.90;2.83;;;6.90;64.90;;;;;;5067955;28;21085;-58
2023/11/23 13:06:08;;;;;;;2.67;2.20;;;6.90;62.30;;;;;;5067463;28;20167;-59
2023/11/23 13:08:34;;;;;;;4.17;2.63;;;7.00;62.60;;;;;;5063290;28;20189;-60
2023/11/23 13:11:00;;;;;;;2.63;2.40;;;7.00;60.50;;;;;;5064685;28;20535;-53
2023/11/23 13:13:26;;;;;;;2.53;2.00;;;7.10;59.00;;;;;;5070383;28;20456;-57
2023/11/23 13:15:51;;;;;;;1.70;1.60;;;7.20;57.70;;;;;;5062253;28;20175;-57
2023/11/23 13:18:17;;;;;;;2.27;1.90;;;7.30;58.10;;;;;;5059543;28;20179;-58
2023/11/23 13:20:42;;;;;;;2.70;1.80;;;7.40;57.60;;;;;;5061569;28;20190;-58
2023/11/23 13:23:08;;;;;;;9.20;2.17;;;7.50;56.10;;;;;;5057862;28;20182;-56
2023/11/23 13:25:34;;;;;;;4.00;2.40;;;7.60;55.30;;;;;;5059149;28;20262;-54
2023/11/23 13:28:00;;;;;;;2.60;2.10;;;7.70;55.60;;;;;;5060138;28;20198;-60
2023/11/23 13:30:29;;;;;;;6.40;2.30;;;7.80;54.30;;;;;;5060055;28;20203;-58
2023/11/23 13:32:56;;;;;;;3.80;2.60;;;8.10;54.10;;;;;;5060961;28;20450;-61
2023/11/23 13:35:31;;;;;;;2.50;2.30;;;8.30;54.40;;;;;;5066132;28;20416;-61
2023/11/23 13:37:57;;;;;;;4.80;2.43;;;8.50;54.50;;;;;;5067238;28;21161;-61
2023/11/23 13:40:23;;;;;;;6.73;2.60;;;8.60;53.20;;;;;;5066423;28;20452;-60
2023/11/23 13:42:48;;;;;;;6.00;3.27;;;8.60;52.80;;;;;;5065072;28;20171;-60
2023/11/23 13:45:15;;;;;;;13.40;3.40;;;8.50;52.90;;;;;;5067584;28;20257;-60
2023/11/23 13:47:40;;;;;;;9.13;3.70;;;8.40;52.70;;;;;;5065700;28;20232;-60
2023/11/23 13:50:13;;;;;;;10.67;3.97;;;8.20;53.60;;;;;;5066583;28;20494;-60
2023/11/23 13:52:40;;;;;;;4.90;3.13;;;8.00;54.30;;;;;;5064889;28;20211;-59
2023/11/23 13:55:07;;;;;;;3.53;2.60;;;7.90;54.80;;;;;;5060464;28;20429;-60
2023/11/23 13:57:33;;;;;;;4.80;3.10;;;7.70;55.20;;;;;;5062652;28;20439;-59
2023/11/23 14:00:00;;;;;;;15.33;4.13;;;7.60;55.50;;;;;;5063451;28;20520;-60
2023/11/23 14:02:26;;;;;;;5.23;2.60;;;7.50;55.80;;;;;;5058387;28;20439;-60
2023/11/23 14:04:52;;;;;;;4.30;3.27;;;7.40;56.20;;;;;;5059030;28;20425;-61
2023/11/23 14:07:18;;;;;;;4.07;3.20;;;7.20;56.60;;;;;;5062528;28;20472;-60
2023/11/23 14:09:44;;;;;;;14.33;6.80;;;7.10;57.10;;;;;;5059128;28;21013;-60
2023/11/23 14:12:12;;;;;;;4.33;3.17;;;7.10;57.60;;;;;;5060679;28;20535;-59
2023/11/23 14:14:39;;;;;;;3.20;2.50;;;7.00;58.00;;;;;;5061881;28;22434;-61
2023/11/23 14:17:05;;;;;;;5.00;3.00;;;7.00;58.70;;;;;;5064177;28;20444;-60
2023/11/23 14:19:30;;;;;;;6.10;2.80;;;6.90;59.90;;;;;;5065407;28;20449;-60
2023/11/23 14:22:00;;;;;;;4.10;2.97;;;6.80;61.20;;;;;;5065547;28;20656;-60
2023/11/23 14:24:29;;;;;;;7.07;3.03;;;6.80;63.00;;;;;;5059399;28;20175;-60
2023/11/23 14:26:55;;;;;;;5.60;2.80;;;6.80;65.40;;;;;;5056627;28;20455;-60
2023/11/23 14:29:21;;;;;;;6.93;3.57;;;6.70;67.10;;;;;;5060307;28;20515;-60
2023/11/23 14:31:51;;;;;;;3.30;2.40;;;6.60;67.80;;;;;;5058626;28;20213;-60
2023/11/23 14:34:21;;;;;;;4.67;2.67;;;6.60;69.10;;;;;;5062189;28;20198;-58
2023/11/23 14:36:48;;;;;;;4.43;3.40;;;6.60;69.60;;;;;;5062052;28;21076;-61
2023/11/23 14:39:16;;;;;;;5.90;3.27;;;6.50;70.60;;;;;;5065740;28;20444;-60
2023/11/23 14:41:43;;;;;;;3.53;2.67;;;6.50;72.80;;;;;;5062824;28;20448;-60
2023/11/23 14:44:09;;;;;;;3.70;2.83;;;6.50;74.10;;;;;;5064107;28;20464;-60
2023/11/23 14:46:35;;;;;;;3.30;2.60;;;6.40;75.50;;;;;;5067224;28;20505;-59
2023/11/23 14:49:01;;;;;;;8.60;3.20;;;6.40;78.50;;;;;;5061945;28;20760;-60
2023/11/23 14:51:26;;;;;;;6.83;3.60;;;6.30;79.10;;;;;;5067469;28;20207;-60
2023/11/23 14:53:54;;;;;;;11.30;3.53;;;6.30;80.30;;;;;;5065465;28;20500;-60
2023/11/23 14:56:23;;;;;;;6.53;3.37;;;6.30;81.90;;;;;;5062351;28;20179;-60
2023/11/23 14:58:50;;;;;;;6.23;3.90;;;6.20;84.40;;;;;;5061135;28;20420;-60
2023/11/23 15:01:16;;;;;;;4.10;3.33;;;6.20;86.10;;;;;;5066114;28;20946;-60
2023/11/23 15:03:41;;;;;;;5.07;3.33;;;6.20;86.80;;;;;;5063088;28;20447;-58
2023/11/23 15:06:07;;;;;;;9.23;3.57;;;6.10;88.50;;;;;;5058912;28;20206;-60
2023/11/23 15:08:33;;;;;;;15.40;4.73;;;6.10;90.30;;;;;;5057454;28;20611;-60
2023/11/23 15:10:59;;;;;;;11.93;3.87;;;6.00;90.00;;;;;;5054911;28;20459;-57
2023/11/23 15:13:25;;;;;;;15.63;4.13;;;6.00;90.60;;;;;;5056806;28;20598;-59
2023/11/23 15:15:50;;;;;;;9.27;4.93;;;6.00;91.70;;;;;;5061676;28;20257;-60